Time;durP1;ratioP1;P1;durP2;ratioP2;P2;SDS_P1;SDS_P2;PMS_P1;PMS_P2;Temp;Humidity;BMP_temperature;BMP_pressure;BME280_temperature;BME280_humidity;BME280_pressure;Samples;Min_cycle;Max_cycle;Signal;HPM_P1;HPM_P2
2021/08/29 00:00:34;;;;;;;;;;;;;;;14.81;86.25;102067.59;5065964;28;19924;-51
2021/08/29 00:03:00;;;;;;;;;;;;;;;14.74;86.61;102068.06;5060423;28;20383;-54
2021/08/29 00:05:27;;;;;;;;;;;;;;;14.81;86.21;102062.28;5072560;28;19928;-53
2021/08/29 00:07:54;;;;;;;;;;;;;;;14.78;86.67;102059.84;5059636;28;19924;-52
2021/08/29 00:10:21;;;;;;;;;;;;;;;14.80;86.82;102060.59;5060058;28;19932;-50
2021/08/29 00:12:47;;;;;;;;;;;;;;;14.79;86.45;102058.03;5065711;28;19970;-53
2021/08/29 00:15:14;;;;;;;;;;;;;;;14.80;86.30;102054.44;5059362;28;19925;-54
2021/08/29 00:17:41;;;;;;;;;;;;;;;14.86;86.52;102054.03;5063940;28;19982;-50
2021/08/29 00:20:07;;;;;;;;;;;;;;;14.85;86.66;102050.56;5046708;28;19924;-52
2021/08/29 00:22:34;;;;;;;;;;;;;;;14.88;86.64;102053.00;5046254;28;20434;-52
2021/08/29 00:25:01;;;;;;;;;;;;;;;14.93;86.10;102054.50;5062014;28;19931;-53
2021/08/29 00:27:28;;;;;;;;;;;;;;;14.86;86.51;102048.75;5060989;28;19931;-51
2021/08/29 00:29:54;;;;;;;;;;;;;;;14.91;86.61;102044.00;5062651;28;20367;-51
2021/08/29 00:32:21;;;;;;;;;;;;;;;14.89;86.42;102037.97;5061081;28;19982;-53
2021/08/29 00:34:47;;;;;;;;;;;;;;;14.92;86.94;102047.53;5059777;28;19928;-53
2021/08/29 00:37:14;;;;;;;;;;;;;;;14.92;86.53;102040.41;5052367;28;20342;-52
2021/08/29 00:39:41;;;;;;;;;;;;;;;14.87;86.99;102034.56;5058668;28;19932;-53
2021/08/29 00:42:07;;;;;;;;;;;;;;;14.90;87.16;102031.72;5047629;28;19959;-53
2021/08/29 00:44:34;;;;;;;;;;;;;;;14.95;86.95;102034.91;5061415;28;19971;-52
2021/08/29 00:47:03;;;;;;;;;;;;;;;14.97;87.06;102035.69;5045270;28;19974;-54
2021/08/29 00:49:30;;;;;;;;;;;;;;;14.97;86.82;102033.03;5042859;28;19925;-53
2021/08/29 00:52:00;;;;;;;;;;;;;;;14.97;87.29;102030.38;5063066;28;19978;-53
2021/08/29 00:54:30;;;;;;;;;;;;;;;14.98;87.02;102031.22;5060772;28;19925;-53
2021/08/29 00:56:57;;;;;;;;;;;;;;;15.00;87.20;102032.00;5061499;28;19996;-52
2021/08/29 00:59:24;;;;;;;;;;;;;;;14.97;87.30;102026.88;5047499;28;19929;-53
2021/08/29 01:01:53;;;;;;;;;;;;;;;14.94;87.20;102027.91;5044280;28;19986;-53
2021/08/29 01:04:21;;;;;;;;;;;;;;;14.93;87.67;102028.00;5043662;28;19953;-53
2021/08/29 01:06:51;;;;;;;;;;;;;;;14.96;87.30;102025.19;5046028;28;19924;-53
2021/08/29 01:09:18;;;;;;;;;;;;;;;14.98;87.01;102021.50;5062791;28;19929;-53
2021/08/29 01:11:45;;;;;;;;;;;;;;;15.04;87.09;102030.84;5060354;28;19967;-53
2021/08/29 01:14:13;;;;;;;;;;;;;;;15.06;87.31;102030.72;5062869;28;19983;-52
2021/08/29 01:16:39;;;;;;;;;;;;;;;15.08;87.08;102028.81;5063124;28;19970;-53
2021/08/29 01:19:12;;;;;;;;;;;;;;;15.03;87.56;102022.03;5061888;28;19932;-51
2021/08/29 01:21:39;;;;;;;;;;;;;;;15.06;87.03;102012.19;5058608;28;20363;-54
2021/08/29 01:24:08;;;;;;;;;;;;;;;15.02;87.79;102027.41;5053106;28;19960;-52
2021/08/29 01:26:44;;;;;;;;;;;;;;;15.01;87.41;102025.72;5060157;28;19924;-53
2021/08/29 01:29:11;;;;;;;;;;;;;;;15.01;87.38;102026.59;5058757;28;19925;-54
2021/08/29 01:31:38;;;;;;;;;;;;;;;15.00;87.95;102029.34;5042108;28;19925;-52
2021/08/29 01:34:09;;;;;;;;;;;;;;;15.05;87.34;102024.56;5052910;28;19948;-50
2021/08/29 01:36:36;;;;;;;;;;;;;;;15.02;88.11;102028.28;5065618;28;20349;-52
2021/08/29 01:39:03;;;;;;;;;;;;;;;14.96;88.47;102031.31;5060944;28;19929;-52
2021/08/29 01:41:31;;;;;;;;;;;;;;;15.08;87.74;102027.03;5066650;28;20532;-53
2021/08/29 01:43:57;;;;;;;;;;;;;;;15.09;87.63;102030.53;5055260;28;19925;-52
2021/08/29 01:46:24;;;;;;;;;;;;;;;15.06;87.57;102020.13;5065474;28;19929;-52
2021/08/29 01:48:51;;;;;;;;;;;;;;;15.02;87.86;102022.13;5072833;28;19929;-53
2021/08/29 01:51:17;;;;;;;;;;;;;;;15.07;87.58;102019.19;5043269;28;19963;-54
2021/08/29 01:53:44;;;;;;;;;;;;;;;15.02;87.85;102020.34;5045006;28;19925;-54
2021/08/29 01:56:10;;;;;;;;;;;;;;;15.03;87.99;102027.31;5061193;28;20279;-54
2021/08/29 01:58:37;;;;;;;;;;;;;;;15.04;87.88;102022.88;5053888;28;19929;-52
2021/08/29 02:01:07;;;;;;;;;;;;;;;15.03;87.83;102023.84;5048940;28;19925;-52
2021/08/29 02:03:34;;;;;;;;;;;;;;;15.08;87.86;102019.09;5071619;28;19925;-53
2021/08/29 02:06:20;;;;;;;;;;;;;;;15.05;87.97;102024.56;5058641;28;19928;-50
2021/08/29 02:08:49;;;;;;;;;;;;;;;15.07;87.84;102027.97;5072156;28;19954;-52
2021/08/29 02:11:16;;;;;;;;;;;;;;;15.06;87.06;102020.97;5059460;28;19929;-51
2021/08/29 02:13:43;;;;;;;;;;;;;;;15.09;86.91;102027.88;5072318;28;19931;-53
2021/08/29 02:16:14;;;;;;;;;;;;;;;15.17;86.84;102007.88;5056585;28;19952;-54
2021/08/29 02:18:42;;;;;;;;;;;;;;;15.17;87.13;102012.31;5043474;28;20372;-52
2021/08/29 02:21:09;;;;;;;;;;;;;;;15.09;86.65;102006.69;5061084;28;19932;-52
2021/08/29 02:23:36;;;;;;;;;;;;;;;15.09;86.50;102012.81;5046645;28;19974;-51
2021/08/29 02:26:03;;;;;;;;;;;;;;;15.09;86.74;102006.69;5055397;28;19925;-52
2021/08/29 02:28:29;;;;;;;;;;;;;;;15.16;86.12;102007.97;5067084;28;20465;-51
2021/08/29 02:30:56;;;;;;;;;;;;;;;15.13;86.12;102006.38;5055528;28;19978;-50
2021/08/29 02:33:23;;;;;;;;;;;;;;;15.12;85.87;102006.47;5047072;28;20390;-51
2021/08/29 02:35:50;;;;;;;;;;;;;;;15.12;86.44;102009.13;5048997;28;19974;-50
2021/08/29 02:38:17;;;;;;;;;;;;;;;15.08;85.87;102019.09;5055221;28;19936;-53
2021/08/29 02:40:44;;;;;;;;;;;;;;;15.11;86.21;102018.88;5059551;28;19932;-53
2021/08/29 02:43:10;;;;;;;;;;;;;;;15.11;85.89;102016.22;5058555;28;20252;-52
2021/08/29 02:45:38;;;;;;;;;;;;;;;15.13;85.85;102009.00;5046330;28;19925;-51
2021/08/29 02:48:04;;;;;;;;;;;;;;;15.14;85.56;102013.38;5059430;28;19932;-53
2021/08/29 02:50:31;;;;;;;;;;;;;;;15.11;85.56;102010.09;5042397;28;19936;-53
2021/08/29 02:52:58;;;;;;;;;;;;;;;15.15;85.54;102011.59;5071180;28;19981;-50
2021/08/29 02:55:24;;;;;;;;;;;;;;;15.16;85.67;102013.25;5065062;28;19925;-53
2021/08/29 02:57:54;;;;;;;;;;;;;;;15.20;85.55;102006.81;5056509;28;20003;-53
2021/08/29 03:00:21;;;;;;;;;;;;;;;15.20;86.06;102005.03;5042809;28;20008;-54
2021/08/29 03:02:48;;;;;;;;;;;;;;;15.23;85.21;102009.28;5055920;28;20376;-51
2021/08/29 03:05:15;;;;;;;;;;;;;;;15.23;85.24;102001.34;5067807;28;19925;-53
2021/08/29 03:07:42;;;;;;;;;;;;;;;15.15;85.40;102004.47;5054921;28;19928;-50
2021/08/29 03:10:09;;;;;;;;;;;;;;;15.12;85.37;101998.53;5087682;28;19928;-53
2021/08/29 03:12:35;;;;;;;;;;;;;;;15.18;85.26;102006.06;5043727;28;20318;-51
2021/08/29 03:15:02;;;;;;;;;;;;;;;15.15;84.80;101998.34;5056303;28;19931;-53
2021/08/29 03:17:29;;;;;;;;;;;;;;;15.20;84.54;101999.72;5067405;28;20252;-51
2021/08/29 03:19:55;;;;;;;;;;;;;;;15.21;85.25;102001.44;5070989;28;19931;-50
2021/08/29 03:22:22;;;;;;;;;;;;;;;15.13;85.60;102005.53;5071881;28;19994;-49
2021/08/29 03:24:49;;;;;;;;;;;;;;;15.13;86.20;101997.56;5071319;28;19978;-53
2021/08/29 03:27:16;;;;;;;;;;;;;;;15.14;86.20;101999.28;5062617;28;19925;-53
2021/08/29 03:29:42;;;;;;;;;;;;;;;15.09;87.25;101990.78;5051116;28;19931;-53
2021/08/29 03:32:09;;;;;;;;;;;;;;;15.09;87.46;101993.44;5067278;28;19964;-54
2021/08/29 03:34:36;;;;;;;;;;;;;;;15.02;87.71;101988.56;5074784;28;19933;-54
2021/08/29 03:37:06;;;;;;;;;;;;;;;15.06;87.41;101985.69;5056780;28;20391;-50
2021/08/29 03:39:33;;;;;;;;;;;;;;;14.94;88.00;101992.66;5068056;28;19931;-54
2021/08/29 03:41:59;;;;;;;;;;;;;;;14.90;88.25;101976.09;5066914;28;19963;-54
2021/08/29 03:44:26;;;;;;;;;;;;;;;14.93;88.17;101978.56;5064515;28;19924;-53
2021/08/29 03:46:53;;;;;;;;;;;;;;;14.98;88.36;101984.41;5056450;28;20336;-53
2021/08/29 03:49:19;;;;;;;;;;;;;;;14.91;88.33;101988.38;5054709;28;19924;-53
2021/08/29 03:51:46;;;;;;;;;;;;;;;14.93;88.47;101969.75;5055975;28;19932;-53
2021/08/29 03:54:13;;;;;;;;;;;;;;;14.98;88.68;101979.13;5055241;28;19994;-52
2021/08/29 03:56:40;;;;;;;;;;;;;;;14.91;88.96;101972.50;5066494;28;19929;-52
2021/08/29 03:59:07;;;;;;;;;;;;;;;14.91;88.76;101967.19;5056521;28;19933;-55
2021/08/29 04:01:33;;;;;;;;;;;;;;;14.88;89.06;101962.13;5074078;28;20391;-53
2021/08/29 04:04:00;;;;;;;;;;;;;;;14.85;88.81;101962.31;5059875;28;20299;-54
2021/08/29 04:06:28;;;;;;;;;;;;;;;14.93;88.73;101959.16;5063912;28;19928;-55
2021/08/29 04:08:55;;;;;;;;;;;;;;;14.83;88.95;101953.63;5067314;28;20322;-54
2021/08/29 04:11:31;;;;;;;;;;;;;;;14.87;88.88;101950.69;5072510;28;19932;-53
2021/08/29 04:13:58;;;;;;;;;;;;;;;14.92;88.35;101954.84;5066923;28;19978;-53
2021/08/29 04:16:25;;;;;;;;;;;;;;;14.91;88.64;101959.25;5056898;28;20318;-52
2021/08/29 04:18:52;;;;;;;;;;;;;;;14.93;88.15;101954.72;5039572;28;19956;-52
2021/08/29 04:21:23;;;;;;;;;;;;;;;15.01;88.26;101952.41;5070754;28;19930;-53
2021/08/29 04:23:50;;;;;;;;;;;;;;;14.94;88.17;101960.84;5069369;28;19924;-51
2021/08/29 04:26:17;;;;;;;;;;;;;;;15.01;87.75;101954.19;5046604;28;19980;-53
2021/08/29 04:28:43;;;;;;;;;;;;;;;15.00;87.77;101955.16;5045658;28;19925;-51
2021/08/29 04:31:11;;;;;;;;;;;;;;;14.98;88.17;101952.63;5059841;28;20008;-53
2021/08/29 04:33:38;;;;;;;;;;;;;;;15.00;88.14;101945.41;5061931;28;19971;-51
2021/08/29 04:36:07;;;;;;;;;;;;;;;15.06;87.73;101944.16;5053027;28;19933;-53
2021/08/29 04:38:35;;;;;;;;;;;;;;;14.97;88.21;101950.91;5061158;28;19924;-53
2021/08/29 04:41:01;;;;;;;;;;;;;;;15.01;87.98;101947.13;5052371;28;20314;-54
2021/08/29 04:43:28;;;;;;;;;;;;;;;15.00;87.95;101948.06;5062695;28;19929;-53
2021/08/29 04:45:54;;;;;;;;;;;;;;;15.03;88.15;101947.84;5059037;28;20281;-51
2021/08/29 04:48:21;;;;;;;;;;;;;;;15.04;88.01;101949.56;5057553;28;20303;-53
2021/08/29 04:50:48;;;;;;;;;;;;;;;14.96;88.66;101941.28;5036339;28;19925;-54
2021/08/29 04:53:15;;;;;;;;;;;;;;;15.00;88.60;101949.88;5038515;28;19932;-54
2021/08/29 04:55:41;;;;;;;;;;;;;;;15.00;88.54;101947.22;5063057;28;19932;-54
2021/08/29 04:58:08;;;;;;;;;;;;;;;15.07;88.45;101955.63;5042960;28;19924;-53
2021/08/29 05:00:35;;;;;;;;;;;;;;;15.08;88.33;101952.00;5066199;28;19932;-52
2021/08/29 05:03:06;;;;;;;;;;;;;;;15.06;88.59;101953.91;5043465;28;19977;-54
2021/08/29 05:05:33;;;;;;;;;;;;;;;15.10;88.47;101948.28;5061349;28;19931;-53
2021/08/29 05:07:59;;;;;;;;;;;;;;;15.10;88.44;101944.81;5064920;28;19970;-52
2021/08/29 05:10:26;;;;;;;;;;;;;;;15.10;88.37;101947.44;5064847;28;19924;-53
2021/08/29 05:12:53;;;;;;;;;;;;;;;15.13;88.81;101945.44;5068706;28;19924;-52
2021/08/29 05:15:19;;;;;;;;;;;;;;;15.18;88.47;101948.63;5053351;28;19929;-52
2021/08/29 05:17:46;;;;;;;;;;;;;;;15.14;88.64;101949.78;5061161;28;19924;-50
2021/08/29 05:20:13;;;;;;;;;;;;;;;15.17;88.44;101951.38;5072171;28;20363;-53
2021/08/29 05:22:39;;;;;;;;;;;;;;;15.25;88.70;101951.72;5053198;28;19954;-51
2021/08/29 05:25:06;;;;;;;;;;;;;;;15.28;87.81;101954.16;5066055;28;19929;-53
2021/08/29 05:27:33;;;;;;;;;;;;;;;15.29;88.04;101960.31;5064281;28;20368;-53
2021/08/29 05:29:59;;;;;;;;;;;;;;;15.25;88.56;101953.53;5058327;28;19925;-52
2021/08/29 05:32:26;;;;;;;;;;;;;;;15.27;88.37;101957.78;5063177;28;19929;-50
2021/08/29 05:34:53;;;;;;;;;;;;;;;15.33;88.29;101953.84;5063587;28;19976;-51
2021/08/29 05:37:19;;;;;;;;;;;;;;;15.32;87.79;101952.16;5073226;28;19947;-47
2021/08/29 05:39:46;;;;;;;;;;;;;;;15.34;87.67;101960.84;5073171;28;19928;-46
2021/08/29 05:42:12;;;;;;;;;;;;;;;15.36;87.81;101957.13;5042482;28;19948;-46
2021/08/29 05:44:39;;;;;;;;;;;;;;;15.43;87.97;101954.91;5037894;28;19925;-46
2021/08/29 05:47:06;;;;;;;;;;;;;;;15.45;87.39;101955.66;5067465;28;19962;-45
2021/08/29 05:49:32;;;;;;;;;;;;;;;15.52;87.16;101950.78;5064598;28;19924;-49
2021/08/29 05:51:59;;;;;;;;;;;;;;;15.49;87.16;101951.00;5072755;28;19928;-48
2021/08/29 05:54:26;;;;;;;;;;;;;;;15.47;87.38;101956.41;5062965;28;20265;-48
2021/08/29 05:56:52;;;;;;;;;;;;;;;15.56;87.63;101954.94;5064959;28;19978;-47
2021/08/29 05:59:19;;;;;;;;;;;;;;;15.61;87.22;101944.88;5062070;28;19939;-47
2021/08/29 06:01:45;;;;;;;;;;;;;;;15.56;87.65;101939.03;5063034;28;19929;-48
2021/08/29 06:04:12;;;;;;;;;;;;;;;15.53;87.67;101936.59;5061166;28;20023;-48
2021/08/29 06:06:39;;;;;;;;;;;;;;;15.49;87.58;101937.75;5060098;28;19925;-49
2021/08/29 06:09:06;;;;;;;;;;;;;;;15.52;87.64;101934.88;5048931;28;19967;-49
2021/08/29 06:11:33;;;;;;;;;;;;;;;15.57;87.40;101929.25;5054022;28;20384;-49
2021/08/29 06:13:59;;;;;;;;;;;;;;;15.58;87.47;101939.75;5061535;28;19952;-50
2021/08/29 06:16:26;;;;;;;;;;;;;;;15.67;87.18;101925.03;5057881;28;19925;-46
2021/08/29 06:18:52;;;;;;;;;;;;;;;15.62;87.30;101929.78;5058858;28;20422;-43
2021/08/29 06:21:19;;;;;;;;;;;;;;;15.63;86.89;101934.16;5065882;28;20372;-45
2021/08/29 06:23:46;;;;;;;;;;;;;;;15.63;87.23;101939.44;5034371;28;19925;-46
2021/08/29 06:26:13;;;;;;;;;;;;;;;15.61;87.50;101931.59;5061823;28;19929;-45
2021/08/29 06:28:39;;;;;;;;;;;;;;;15.60;87.19;101932.56;5062254;28;19925;-53
2021/08/29 06:31:06;;;;;;;;;;;;;;;15.66;87.29;101936.59;5069289;28;19928;-44
2021/08/29 06:33:32;;;;;;;;;;;;;;;15.67;86.95;101935.63;5054443;28;19924;-46
2021/08/29 06:36:00;;;;;;;;;;;;;;;15.69;86.85;101926.63;5070934;28;20425;-45
2021/08/29 06:38:27;;;;;;;;;;;;;;;15.67;86.78;101927.69;5035803;28;19925;-44
2021/08/29 06:40:53;;;;;;;;;;;;;;;15.77;86.26;101935.84;5063657;28;20055;-46
2021/08/29 06:43:20;;;;;;;;;;;;;;;15.73;85.76;101935.19;5072416;28;19978;-45
2021/08/29 06:45:46;;;;;;;;;;;;;;;15.79;86.23;101931.25;5040350;28;19929;-45
2021/08/29 06:48:13;;;;;;;;;;;;;;;15.81;85.86;101929.38;5051175;28;19929;-43
2021/08/29 06:50:40;;;;;;;;;;;;;;;15.78;86.09;101924.28;5051016;28;19974;-48
2021/08/29 06:53:07;;;;;;;;;;;;;;;15.87;85.68;101923.66;5051700;28;19925;-46
2021/08/29 06:55:33;;;;;;;;;;;;;;;15.86;85.84;101924.63;5051434;28;20109;-48
2021/08/29 06:58:00;;;;;;;;;;;;;;;15.85;86.12;101925.56;5051420;28;19925;-48
2021/08/29 07:00:27;;;;;;;;;;;;;;;15.90;85.96;101923.44;5051244;28;19924;-48
2021/08/29 07:02:54;;;;;;;;;;;;;;;16.04;85.64;101925.09;5034603;28;20261;-46
2021/08/29 07:05:21;;;;;;;;;;;;;;;16.02;85.42;101927.88;5051814;28;20365;-43
2021/08/29 07:07:48;;;;;;;;;;;;;;;16.07;85.84;101924.03;5051668;28;19925;-47
2021/08/29 07:10:14;;;;;;;;;;;;;;;16.07;85.54;101929.34;5051613;28;20034;-47
2021/08/29 07:12:41;;;;;;;;;;;;;;;16.09;85.75;101932.72;5051758;28;19925;-47
2021/08/29 07:15:08;;;;;;;;;;;;;;;16.14;85.25;101925.28;5051379;28;19932;-46
2021/08/29 07:17:34;;;;;;;;;;;;;;;16.25;84.92;101927.19;5073313;28;19979;-45
2021/08/29 07:20:01;;;;;;;;;;;;;;;16.32;85.12;101928.41;5070704;28;19966;-44
2021/08/29 07:22:28;;;;;;;;;;;;;;;16.21;86.00;101926.53;5072186;28;19925;-44
2021/08/29 07:24:54;;;;;;;;;;;;;;;16.18;85.63;101924.13;5060540;28;19924;-46
2021/08/29 07:27:21;;;;;;;;;;;;;;;16.20;86.36;101919.56;5054299;28;19933;-46
2021/08/29 07:29:47;;;;;;;;;;;;;;;16.21;85.89;101918.56;5061962;28;19983;-46
2021/08/29 07:32:14;;;;;;;;;;;;;;;16.27;85.52;101922.63;5056199;28;19925;-45
2021/08/29 07:34:41;;;;;;;;;;;;;;;16.23;85.31;101927.28;5072311;28;19959;-47
2021/08/29 07:37:07;;;;;;;;;;;;;;;16.25;84.96;101914.75;5066362;28;19924;-44
2021/08/29 07:39:34;;;;;;;;;;;;;;;16.24;85.19;101918.38;5068397;28;19924;-44
2021/08/29 07:42:01;;;;;;;;;;;;;;;16.25;85.15;101917.41;5071240;28;19924;-49
2021/08/29 07:44:27;;;;;;;;;;;;;;;16.21;84.46;101910.63;5048372;28;19924;-44
2021/08/29 07:46:54;;;;;;;;;;;;;;;16.19;84.25;101910.72;5069304;28;19924;-49
2021/08/29 07:49:21;;;;;;;;;;;;;;;16.23;84.63;101916.69;5049737;28;19982;-47
2021/08/29 07:51:47;;;;;;;;;;;;;;;16.19;85.17;101912.56;5049401;28;19978;-49
2021/08/29 07:54:14;;;;;;;;;;;;;;;16.21;84.89;101910.63;5054795;28;20334;-45
2021/08/29 07:56:40;;;;;;;;;;;;;;;16.12;85.30;101912.13;5061201;28;19924;-45
2021/08/29 07:59:07;;;;;;;;;;;;;;;16.15;86.32;101917.22;5068214;28;19925;-46
2021/08/29 08:01:34;;;;;;;;;;;;;;;16.00;86.49;101913.84;5075136;28;19928;-46
2021/08/29 08:04:01;;;;;;;;;;;;;;;16.01;87.12;101920.88;5077129;28;19932;-44
2021/08/29 08:06:28;;;;;;;;;;;;;;;16.03;88.11;101920.75;5046574;28;19931;-48
2021/08/29 08:08:55;;;;;;;;;;;;;;;16.01;88.06;101914.72;5065823;28;19924;-45
2021/08/29 08:11:22;;;;;;;;;;;;;;;15.93;88.37;101915.25;5056207;28;19924;-47
2021/08/29 08:13:49;;;;;;;;;;;;;;;16.11;89.22;101914.91;5054644;28;19959;-44
2021/08/29 08:16:15;;;;;;;;;;;;;;;15.97;90.19;101911.44;5053909;28;20059;-47
2021/08/29 08:18:43;;;;;;;;;;;;;;;15.91;89.95;101914.53;5060491;28;20406;-46
2021/08/29 08:21:09;;;;;;;;;;;;;;;15.96;90.31;101917.69;5053640;28;19987;-45
2021/08/29 08:23:36;;;;;;;;;;;;;;;15.97;91.49;101914.09;5036771;28;20331;-48
2021/08/29 08:26:03;;;;;;;;;;;;;;;15.94;91.21;101908.13;5061938;28;19955;-46
2021/08/29 08:28:29;;;;;;;;;;;;;;;16.01;91.50;101912.91;5045584;28;20322;-47
2021/08/29 08:30:56;;;;;;;;;;;;;;;16.02;90.94;101916.41;5062863;28;19935;-50
2021/08/29 08:33:22;;;;;;;;;;;;;;;16.00;90.73;101916.50;5072392;28;19956;-47
2021/08/29 08:35:49;;;;;;;;;;;;;;;16.01;91.49;101910.25;5027266;28;19924;-45
2021/08/29 08:38:16;;;;;;;;;;;;;;;15.97;90.71;101919.38;5046226;28;19924;-45
2021/08/29 08:40:43;;;;;;;;;;;;;;;15.90;91.33;101918.13;5055109;28;20426;-43
2021/08/29 08:43:10;;;;;;;;;;;;;;;15.77;89.98;101920.75;5041518;28;19925;-43
2021/08/29 08:45:37;;;;;;;;;;;;;;;15.65;90.17;101911.00;5053994;28;19974;-43
2021/08/29 08:48:04;;;;;;;;;;;;;;;15.65;90.01;101909.22;5054845;28;19925;-45
2021/08/29 08:50:37;;;;;;;;;;;;;;;15.60;91.16;101900.75;5064548;28;19954;-48
2021/08/29 08:53:04;;;;;;;;;;;;;;;15.55;90.74;101905.50;5054889;28;19925;-45
2021/08/29 08:55:31;;;;;;;;;;;;;;;15.58;91.44;101905.28;5056249;28;19931;-46
2021/08/29 08:57:58;;;;;;;;;;;;;;;15.70;91.44;101900.94;5045022;28;19928;-48
2021/08/29 09:00:25;;;;;;;;;;;;;;;15.55;91.12;101900.22;5055851;28;20338;-52
2021/08/29 09:02:52;;;;;;;;;;;;;;;15.58;91.26;101894.69;5037565;28;19959;-47
2021/08/29 09:05:20;;;;;;;;;;;;;;;15.61;91.75;101899.78;5038847;28;19933;-47
2021/08/29 09:07:47;;;;;;;;;;;;;;;15.65;91.92;101898.63;5056897;28;19928;-45
2021/08/29 09:10:13;;;;;;;;;;;;;;;15.74;92.35;101898.94;5042192;28;19970;-45
2021/08/29 09:12:56;;;;;;;;;;;;;;;15.66;92.42;101887.03;5070514;28;20384;-47
2021/08/29 09:15:23;;;;;;;;;;;;;;;15.68;91.73;101893.09;5062156;28;19924;-45
2021/08/29 09:17:49;;;;;;;;;;;;;;;15.75;92.06;101892.66;5058800;28;19925;-46
2021/08/29 09:20:22;;;;;;;;;;;;;;;15.87;92.96;101889.19;5065103;28;19925;-44
2021/08/29 09:22:53;;;;;;;;;;;;;;;15.91;92.63;101884.50;5067266;28;19947;-48
2021/08/29 09:25:20;;;;;;;;;;;;;;;15.86;92.32;101884.81;5071381;28;19924;-47
2021/08/29 09:27:48;;;;;;;;;;;;;;;15.93;92.76;101896.69;5035004;28;19924;-50
2021/08/29 09:30:15;;;;;;;;;;;;;;;15.94;91.96;101879.81;5064683;28;19932;-43
2021/08/29 09:33:00;;;;;;;;;;;;;;;15.79;92.55;101881.72;5059408;28;19978;-49
2021/08/29 09:35:28;;;;;;;;;;;;;;;15.78;92.41;101881.84;5058229;28;19983;-45
2021/08/29 09:37:55;;;;;;;;;;;;;;;15.83;93.20;101879.75;5065870;28;19924;-44
2021/08/29 09:40:23;;;;;;;;;;;;;;;15.80;93.53;101885.25;5059465;28;19924;-45
2021/08/29 09:42:51;;;;;;;;;;;;;;;15.68;93.98;101885.13;5063460;28;20287;-44
2021/08/29 09:45:22;;;;;;;;;;;;;;;15.80;94.90;101885.25;5064561;28;20290;-45
2021/08/29 09:47:49;;;;;;;;;;;;;;;15.77;94.29;101891.59;5056388;28;20400;-50
2021/08/29 09:50:16;;;;;;;;;;;;;;;15.78;94.46;101884.50;5044568;28;19926;-46
2021/08/29 09:52:43;;;;;;;;;;;;;;;15.86;95.47;101884.81;5029196;28;20299;-46
2021/08/29 09:55:10;;;;;;;;;;;;;;;15.85;95.32;101888.44;5032894;28;19925;-46
2021/08/29 09:57:36;;;;;;;;;;;;;;;15.92;95.42;101881.72;5039597;28;20373;-44
2021/08/29 10:00:06;;;;;;;;;;;;;;;16.06;95.91;101891.38;5015810;28;20020;-48
2021/08/29 10:02:33;;;;;;;;;;;;;;;16.13;95.40;101883.78;5025801;28;19925;-50
2021/08/29 10:05:19;;;;;;;;;;;;;;;16.11;94.88;101886.56;5016088;28;19931;-49
2021/08/29 10:08:07;;;;;;;;;;;;;;;16.13;95.66;101882.00;5032740;28;19929;-48
2021/08/29 10:10:36;;;;;;;;;;;;;;;16.19;95.20;101886.00;5029759;28;19925;-47
2021/08/29 10:13:03;;;;;;;;;;;;;;;16.19;95.02;101880.69;5048180;28;19933;-48
2021/08/29 10:15:31;;;;;;;;;;;;;;;16.10;94.39;101876.06;5038274;28;19930;-49
2021/08/29 10:17:58;;;;;;;;;;;;;;;16.12;94.77;101879.47;5030939;28;19925;-42
2021/08/29 10:20:26;;;;;;;;;;;;;;;16.27;95.28;101875.69;5022475;28;20020;-49
2021/08/29 10:22:52;;;;;;;;;;;;;;;16.19;94.81;101870.09;5013988;28;20300;-46
2021/08/29 10:25:19;;;;;;;;;;;;;;;16.16;95.26;101881.78;5034728;28;19961;-47
2021/08/29 10:27:48;;;;;;;;;;;;;;;16.16;95.17;101875.63;5017907;28;19925;-46
2021/08/29 10:30:15;;;;;;;;;;;;;;;16.11;94.30;101880.41;5043156;28;19975;-44
2021/08/29 10:32:45;;;;;;;;;;;;;;;16.09;94.83;101871.69;5013045;28;19925;-48
2021/08/29 10:35:13;;;;;;;;;;;;;;;16.11;94.48;101872.44;5024756;28;19932;-47
2021/08/29 10:37:41;;;;;;;;;;;;;;;16.19;94.66;101876.22;5012969;28;19925;-47
2021/08/29 10:40:08;;;;;;;;;;;;;;;16.22;94.32;101875.16;5024747;28;19925;-46
2021/08/29 10:42:37;;;;;;;;;;;;;;;16.18;95.27;101868.38;5028437;28;19980;-48
2021/08/29 10:45:04;;;;;;;;;;;;;;;16.06;94.87;101864.84;5022776;28;19933;-49
2021/08/29 10:47:31;;;;;;;;;;;;;;;16.18;95.65;101863.94;5029609;28;20709;-49
2021/08/29 10:49:58;;;;;;;;;;;;;;;16.16;95.85;101865.84;5043800;28;19933;-47
2021/08/29 10:52:28;;;;;;;;;;;;;;;16.23;96.20;101868.91;5062670;28;19979;-49
2021/08/29 10:54:55;;;;;;;;;;;;;;;16.32;96.39;101868.22;5046065;28;20372;-50
2021/08/29 10:57:29;;;;;;;;;;;;;;;16.14;96.13;101862.47;5066560;28;20413;-49
2021/08/29 11:00:03;;;;;;;;;;;;;;;16.26;96.75;101865.19;5065061;28;19924;-53
2021/08/29 11:02:42;;;;;;;;;;;;;;;16.21;96.02;101863.72;5095925;28;20383;-52
2021/08/29 11:05:10;;;;;;;;;;;;;;;16.27;96.68;101861.56;5071966;28;19925;-52
2021/08/29 11:07:47;;;;;;;;;;;;;;;16.28;96.60;101860.59;5084144;28;19927;-53
2021/08/29 11:10:34;;;;;;;;;;;;;;;16.27;96.22;101859.75;5093351;28;19925;-50
2021/08/29 11:13:00;;;;;;;;;;;;;;;16.39;96.37;101856.19;5071764;28;19956;-49
2021/08/29 11:15:36;;;;;;;;;;;;;;;16.36;96.29;101855.56;5037590;28;19928;-53
2021/08/29 11:18:03;;;;;;;;;;;;;;;16.44;95.74;101853.19;5083730;28;19962;-50
2021/08/29 11:20:32;;;;;;;;;;;;;;;16.48;95.72;101852.00;5069706;28;20426;-53
2021/08/29 11:22:58;;;;;;;;;;;;;;;16.43;95.97;101861.28;5054841;28;20034;-50
2021/08/29 11:25:25;;;;;;;;;;;;;;;16.61;95.66;101854.59;5050319;28;20257;-52
2021/08/29 11:27:56;;;;;;;;;;;;;;;16.54;95.59;101861.34;5063238;28;19933;-52
2021/08/29 11:30:43;;;;;;;;;;;;;;;16.56;96.28;101856.75;5059793;28;19964;-52
2021/08/29 11:33:11;;;;;;;;;;;;;;;16.64;95.77;101854.38;5062602;28;19925;-49
2021/08/29 11:35:48;;;;;;;;;;;;;;;16.62;95.71;101860.75;5072180;28;19958;-52
2021/08/29 11:38:19;;;;;;;;;;;;;;;16.55;95.52;101849.75;5066933;28;19954;-52
2021/08/29 11:40:56;;;;;;;;;;;;;;;16.59;95.46;101851.19;5075276;28;19924;-51
2021/08/29 11:43:29;;;;;;;;;;;;;;;16.72;96.35;101851.16;5057783;28;19925;-52
2021/08/29 11:46:10;;;;;;;;;;;;;;;16.73;95.78;101853.69;5070799;28;19956;-50
2021/08/29 11:48:38;;;;;;;;;;;;;;;16.78;94.70;101852.47;5066626;28;19931;-49
2021/08/29 11:51:05;;;;;;;;;;;;;;;16.84;95.05;101852.03;5075560;28;19928;-52
2021/08/29 11:53:41;;;;;;;;;;;;;;;16.79;94.52;101854.19;5075315;28;20271;-48
2021/08/29 11:56:08;;;;;;;;;;;;;;;16.90;94.22;101856.91;5064795;28;19975;-49
2021/08/29 11:58:34;;;;;;;;;;;;;;;16.92;93.40;101852.31;5066427;28;19960;-50
2021/08/29 12:01:02;;;;;;;;;;;;;;;16.84;93.19;101852.03;5072547;28;20416;-50
2021/08/29 12:03:35;;;;;;;;;;;;;;;16.91;93.51;101850.63;5055125;28;19924;-50
2021/08/29 12:06:08;;;;;;;;;;;;;;;16.99;92.34;101852.72;5047522;28;19963;-50
2021/08/29 12:08:49;;;;;;;;;;;;;;;17.05;92.21;101855.72;5059831;28;20383;-50
2021/08/29 12:11:16;;;;;;;;;;;;;;;17.08;91.04;101859.13;5059151;28;19978;-49
2021/08/29 12:13:43;;;;;;;;;;;;;;;17.01;91.07;101851.59;5046920;28;19946;-51
2021/08/29 12:16:09;;;;;;;;;;;;;;;17.12;92.29;101852.59;5045617;28;20015;-51
2021/08/29 12:18:38;;;;;;;;;;;;;;;17.18;91.65;101846.81;5044350;28;19925;-52
2021/08/29 12:21:06;;;;;;;;;;;;;;;17.12;91.51;101847.28;5056580;28;20327;-54
2021/08/29 12:23:32;;;;;;;;;;;;;;;17.22;92.31;101848.28;5039707;28;19925;-49
2021/08/29 12:26:00;;;;;;;;;;;;;;;17.27;91.88;101850.56;5062546;28;20390;-45
2021/08/29 12:28:27;;;;;;;;;;;;;;;17.30;91.57;101851.19;5057276;28;19939;-47
2021/08/29 12:30:55;;;;;;;;;;;;;;;17.26;90.94;101847.06;5069442;28;19928;-45
2021/08/29 12:33:23;;;;;;;;;;;;;;;17.28;91.67;101855.75;5060082;28;19956;-46
2021/08/29 12:35:50;;;;;;;;;;;;;;;17.25;91.09;101853.34;5062338;28;19978;-48
2021/08/29 12:38:17;;;;;;;;;;;;;;;17.26;91.82;101851.53;5066296;28;19925;-47